createdAt,value
2023-11-25T00:01:01.437Z,95612.77
2023-11-25T00:03:39.356Z,95615.48
2023-11-25T00:06:08.478Z,95613.31
2023-11-25T00:08:36.363Z,95613.33
2023-11-25T00:11:12.131Z,95614.56
2023-11-25T00:13:46.405Z,95614.02
2023-11-25T00:16:14.510Z,95612.31
2023-11-25T00:18:42.657Z,95611.96
2023-11-25T00:21:10.867Z,95610.27
2023-11-25T00:23:39.091Z,95614.23
2023-11-25T00:26:06.986Z,95612.76
2023-11-25T00:28:34.968Z,95619.29
2023-11-25T00:31:03.290Z,95615.88
2023-11-25T00:33:31.285Z,95615.33
2023-11-25T00:35:59.809Z,95617.30
2023-11-25T00:38:27.847Z,95618.86
2023-11-25T00:40:55.720Z,95618.88
2023-11-25T00:43:23.955Z,95615.43
2023-11-25T00:45:52.093Z,95613.34
2023-11-25T00:48:20.144Z,95609.39
2023-11-25T00:51:26.090Z,95607.83
2023-11-25T00:53:57.664Z,95608.38
2023-11-25T00:56:25.569Z,95604.30
2023-11-25T00:58:53.500Z,95600.70
2023-11-25T01:01:21.645Z,95598.15
2023-11-25T01:03:49.825Z,95603.04
2023-11-25T01:06:17.896Z,95601.55
2023-11-25T01:08:46.111Z,95600.88
2023-11-25T01:11:17.139Z,95596.58
2023-11-25T01:14:04.033Z,95603.20
2023-11-25T01:16:51.340Z,95598.00
2023-11-25T01:19:19.324Z,95595.28
2023-11-25T01:21:47.239Z,95594.29
2023-11-25T01:24:16.121Z,95594.19
2023-11-25T01:26:44.185Z,95590.73
2023-11-25T01:29:12.177Z,95596.95
2023-11-25T01:31:40.127Z,95596.10
2023-11-25T01:34:08.214Z,95591.74
2023-11-25T01:36:36.248Z,95593.83
2023-11-25T01:39:04.310Z,95594.13
2023-11-25T01:41:32.558Z,95592.91
2023-11-25T01:44:00.767Z,95588.81
2023-11-25T01:46:39.231Z,95580.16
2023-11-25T01:49:09.482Z,95579.38
2023-11-25T01:51:42.607Z,95578.05
2023-11-25T01:54:13.927Z,95577.89
2023-11-25T01:56:43.288Z,95578.07
2023-11-25T01:59:15.861Z,95579.19
2023-11-25T02:01:46.075Z,95573.66
2023-11-25T02:04:14.133Z,95566.14
2023-11-25T02:06:42.115Z,95564.91
2023-11-25T02:09:10.019Z,95568.36
2023-11-25T02:11:57.830Z,95573.23
2023-11-25T02:14:26.703Z,95574.20
2023-11-25T02:16:55.803Z,95570.08
2023-11-25T02:19:24.722Z,95569.20
2023-11-25T02:21:53.430Z,95570.36
2023-11-25T02:24:21.532Z,95566.83
2023-11-25T02:26:58.514Z,95571.40
2023-11-25T02:29:28.005Z,95572.40
2023-11-25T02:31:56.414Z,95570.36
2023-11-25T02:34:24.791Z,95574.05
2023-11-25T02:36:53.543Z,95571.14
2023-11-25T02:39:40.568Z,95575.69
2023-11-25T02:42:08.639Z,95581.48
2023-11-25T02:44:36.788Z,95587.75
2023-11-25T02:47:05.122Z,95587.14
2023-11-25T02:49:33.165Z,95595.96
2023-11-25T02:52:02.297Z,95596.76
2023-11-25T02:54:30.394Z,95587.38
2023-11-25T02:56:58.350Z,95588.77
2023-11-25T02:59:26.268Z,95584.98
2023-11-25T03:02:06.418Z,95589.35
2023-11-25T03:04:34.548Z,95593.90
2023-11-25T03:07:02.526Z,95594.58
2023-11-25T03:09:30.504Z,95596.46
2023-11-25T03:11:58.342Z,95597.97
2023-11-25T03:14:26.337Z,95600.55
2023-11-25T03:16:56.202Z,95602.63
2023-11-25T03:19:24.158Z,95603.71
2023-11-25T03:21:53.724Z,95608.81
2023-11-25T03:24:21.921Z,95600.27
2023-11-25T03:26:49.802Z,95608.54
2023-11-25T03:29:17.677Z,95607.68
2023-11-25T03:31:46.161Z,95607.89
2023-11-25T03:34:14.334Z,95609.23
2023-11-25T03:36:42.522Z,95609.42
2023-11-25T03:39:10.527Z,95614.66
2023-11-25T03:41:38.452Z,95620.45
2023-11-25T03:44:07.268Z,95625.16
2023-11-25T03:46:35.344Z,95627.37
2023-11-25T03:49:03.793Z,95625.47
2023-11-25T03:51:31.725Z,95628.23
2023-11-25T03:53:59.582Z,95624.41
2023-11-25T03:56:27.630Z,95625.55
2023-11-25T03:58:55.550Z,95623.41
2023-11-25T04:01:23.615Z,95627.96
2023-11-25T04:03:51.747Z,95631.83
2023-11-25T04:06:19.791Z,95630.98
2023-11-25T04:08:47.700Z,95629.85
2023-11-25T04:11:15.598Z,95629.30
2023-11-25T04:13:43.641Z,95636.13
2023-11-25T04:16:11.639Z,95637.27
2023-11-25T04:18:39.544Z,95642.05
2023-11-25T04:21:07.738Z,95637.17
2023-11-25T04:23:35.842Z,95638.70
2023-11-25T04:26:03.768Z,95637.98
2023-11-25T04:28:31.688Z,95646.77
2023-11-25T04:31:00.072Z,95657.48
2023-11-25T04:33:28.006Z,95683.15
2023-11-25T04:35:55.857Z,95682.98
2023-11-25T04:38:23.875Z,95684.32
2023-11-25T04:40:51.837Z,95697.30
2023-11-25T04:43:19.761Z,95702.94
2023-11-25T04:45:47.683Z,95705.02
2023-11-25T04:48:15.546Z,95708.33
2023-11-25T04:50:45.681Z,95713.36
2023-11-25T04:53:14.418Z,95717.73
2023-11-25T04:55:42.284Z,95719.36
2023-11-25T04:58:10.232Z,95725.22
2023-11-25T05:00:38.321Z,95728.86
2023-11-25T05:03:06.454Z,95726.60
2023-11-25T05:05:34.537Z,95732.13
2023-11-25T05:08:02.581Z,95739.83
2023-11-25T05:10:30.889Z,95747.88
2023-11-25T05:12:58.864Z,95748.44
2023-11-25T05:15:27.069Z,95752.82
2023-11-25T05:17:55.092Z,95761.70
2023-11-25T05:20:23.049Z,95772.48
2023-11-25T05:22:51.013Z,95775.48
2023-11-25T05:25:18.998Z,95781.08
2023-11-25T05:27:46.980Z,95781.23
2023-11-25T05:30:15.542Z,95784.40
2023-11-25T05:32:44.294Z,95784.75
2023-11-25T05:35:15.011Z,95785.73
2023-11-25T05:37:44.336Z,95788.42
2023-11-25T05:40:12.804Z,95796.13
2023-11-25T05:42:41.130Z,95806.70
2023-11-25T05:45:09.606Z,95809.87
2023-11-25T05:47:37.578Z,95818.05
2023-11-25T05:50:06.576Z,95826.14
2023-11-25T05:52:34.597Z,95830.21
2023-11-25T05:55:02.642Z,95834.54
2023-11-25T05:57:30.583Z,95839.09
2023-11-25T05:59:58.506Z,95846.40
2023-11-25T06:02:26.480Z,95847.55
2023-11-25T06:04:54.539Z,95851.17
2023-11-25T06:07:22.912Z,95858.05
2023-11-25T06:09:50.837Z,95861.67
2023-11-25T06:12:19.385Z,95864.80
2023-11-25T06:14:47.659Z,95870.80
2023-11-25T06:17:15.793Z,95870.22
2023-11-25T06:19:43.840Z,95876.70
2023-11-25T06:22:11.938Z,95875.70
2023-11-25T06:24:39.906Z,95882.00
2023-11-25T06:27:08.050Z,95885.35
2023-11-25T06:29:36.027Z,95890.29
2023-11-25T06:32:04.125Z,95889.89
2023-11-25T06:34:32.254Z,95891.45
2023-11-25T06:37:00.105Z,95898.92
2023-11-25T06:39:28.055Z,95903.22
2023-11-25T06:41:56.038Z,95905.63
2023-11-25T06:44:23.970Z,95911.49
2023-11-25T06:46:52.165Z,95922.16
2023-11-25T06:49:20.184Z,95926.02
2023-11-25T06:51:48.153Z,95926.95
2023-11-25T06:54:16.434Z,95928.64
2023-11-25T06:56:46.738Z,95937.09
2023-11-25T06:59:14.643Z,95941.09
2023-11-25T07:01:42.574Z,95942.77
2023-11-25T07:04:10.536Z,95944.74
2023-11-25T07:06:38.532Z,95949.92
2023-11-25T07:09:06.422Z,95951.48
2023-11-25T07:11:34.386Z,95954.46
2023-11-25T07:14:02.730Z,95955.42
2023-11-25T07:16:30.630Z,95958.04
2023-11-25T07:18:58.631Z,95960.17
2023-11-25T07:21:26.557Z,95968.67
2023-11-25T07:23:54.508Z,95971.57
2023-11-25T07:26:22.395Z,95978.53
2023-11-25T07:28:50.487Z,95980.00
2023-11-25T07:31:18.450Z,95983.05
2023-11-25T07:33:50.122Z,95987.83
2023-11-25T07:36:19.694Z,95988.27
2023-11-25T07:38:47.606Z,95995.30
2023-11-25T07:41:18.342Z,96002.16
2023-11-25T07:43:46.464Z,96002.95
2023-11-25T07:46:14.516Z,96006.30
2023-11-25T07:48:42.449Z,96003.65
2023-11-25T07:51:11.026Z,95999.83
2023-11-25T07:53:38.969Z,96006.80
2023-11-25T07:56:07.286Z,96012.87
2023-11-25T07:58:35.562Z,96018.15
2023-11-25T08:01:03.502Z,96016.98
2023-11-25T08:03:31.449Z,96019.48
2023-11-25T08:06:00.089Z,96018.80
2023-11-25T08:08:28.152Z,96022.10
2023-11-25T08:10:56.077Z,96028.73
2023-11-25T08:13:24.039Z,96036.33
2023-11-25T08:15:52.488Z,96033.59
2023-11-25T08:18:20.942Z,96036.39
2023-11-25T08:20:48.908Z,96042.77
2023-11-25T08:23:18.571Z,96051.77
2023-11-25T08:25:47.047Z,96053.85
2023-11-25T08:28:14.982Z,96057.48
2023-11-25T08:30:42.938Z,96058.97
2023-11-25T08:33:11.127Z,96063.15
2023-11-25T08:35:39.145Z,96070.45
2023-11-25T08:38:07.318Z,96069.98
2023-11-25T08:40:35.251Z,96073.45
2023-11-25T08:43:03.883Z,96076.98
2023-11-25T08:45:31.942Z,96081.05
2023-11-25T08:48:01.240Z,96085.20
2023-11-25T08:50:30.114Z,96092.59
2023-11-25T08:53:00.620Z,96094.81
2023-11-25T08:55:29.092Z,96100.80
2023-11-25T08:57:59.683Z,96101.65
2023-11-25T09:00:28.075Z,96108.23
2023-11-25T09:02:56.364Z,96108.22
2023-11-25T09:05:33.208Z,96114.84
2023-11-25T09:08:13.806Z,96116.40
2023-11-25T09:10:45.297Z,96117.60
2023-11-25T09:13:26.689Z,96119.27
2023-11-25T09:19:32.287Z,96122.36
2023-11-25T09:22:00.527Z,96116.82
2023-11-25T09:24:28.743Z,96115.41
2023-11-25T09:26:57.486Z,96120.48
2023-11-25T09:29:25.881Z,96120.41
2023-11-25T09:31:54.110Z,96125.30
2023-11-25T09:34:22.676Z,96124.89
2023-11-25T09:36:52.576Z,96122.88
2023-11-25T09:39:20.615Z,96121.27
2023-11-25T09:41:48.832Z,96115.09
2023-11-25T09:44:17.645Z,96111.38
2023-11-25T09:46:48.989Z,96106.48
2023-11-25T09:49:17.823Z,96110.98
2023-11-25T09:51:46.826Z,96115.23
2023-11-25T09:54:22.235Z,96113.88
2023-11-25T09:56:50.896Z,96111.93
2023-11-25T09:59:19.132Z,96112.67
2023-11-25T10:01:47.560Z,96116.08
2023-11-25T10:04:22.431Z,96119.83
2023-11-25T10:06:53.745Z,96122.07
2023-11-25T10:09:22.155Z,96121.96
2023-11-25T10:11:50.371Z,96118.97
2023-11-25T10:14:18.368Z,96116.93
2023-11-25T10:16:46.471Z,96123.55
2023-11-25T10:19:20.151Z,96125.52
2023-11-25T10:21:50.242Z,96125.26
2023-11-25T10:24:19.472Z,96125.58
2023-11-25T10:26:50.858Z,96130.11
2023-11-25T10:29:27.063Z,96134.42
2023-11-25T10:35:43.051Z,96133.27
2023-11-25T10:38:16.810Z,96128.21
2023-11-25T10:41:04.114Z,96124.79
2023-11-25T10:43:44.330Z,96125.05
2023-11-25T10:46:12.678Z,96118.45
2023-11-25T10:51:30.516Z,96120.83
2023-11-25T10:54:00.581Z,96124.23
2023-11-25T10:56:31.082Z,96116.20
2023-11-25T10:59:01.216Z,96115.14
2023-11-25T11:01:33.229Z,96124.77
2023-11-25T11:04:14.681Z,96127.27
2023-11-25T11:06:55.930Z,96128.13
2023-11-25T11:09:26.819Z,96129.27
2023-11-25T11:12:09.129Z,96135.85
2023-11-25T11:14:48.578Z,96141.55
2023-11-25T11:17:35.235Z,96144.45
2023-11-25T11:20:11.190Z,96152.60
2023-11-25T11:22:57.643Z,96160.56
2023-11-25T11:29:25.799Z,96165.77
2023-11-25T11:32:08.887Z,96166.72
2023-11-25T11:34:37.651Z,96166.58
2023-11-25T11:37:05.862Z,96164.70
2023-11-25T11:39:52.449Z,96163.59
2023-11-25T11:42:23.740Z,96162.33
2023-11-25T11:44:59.761Z,96160.59
2023-11-25T11:47:28.674Z,96159.77
2023-11-25T11:50:01.090Z,96159.41
2023-11-25T11:52:54.831Z,96160.70
2023-11-25T11:55:40.514Z,96160.66
2023-11-25T11:58:17.947Z,96161.94
2023-11-25T12:01:08.518Z,96165.26
2023-11-25T12:03:38.161Z,96164.34
2023-11-25T12:06:07.461Z,96165.83
2023-11-25T12:08:38.874Z,96165.11
2023-11-25T12:11:07.670Z,96167.23
2023-11-25T12:13:36.439Z,96166.56
2023-11-25T12:16:04.938Z,96168.62
2023-11-25T12:18:34.937Z,96165.48
2023-11-25T12:21:04.247Z,96164.50
2023-11-25T12:23:44.517Z,96164.61
2023-11-25T12:26:23.558Z,96166.35
2023-11-25T12:28:51.909Z,96164.69
2023-11-25T12:31:20.210Z,96164.75
2023-11-25T12:33:48.283Z,96163.30
2023-11-25T12:36:18.952Z,96160.52
2023-11-25T12:38:46.907Z,96166.18
2023-11-25T12:41:15.128Z,96165.06
2023-11-25T12:44:05.625Z,96168.17
2023-11-25T12:46:33.807Z,96164.17
2023-11-25T12:49:25.230Z,96160.58
2023-11-25T12:51:53.934Z,96159.66
2023-11-25T12:54:22.263Z,96166.81
2023-11-25T12:56:54.896Z,96166.98
2023-11-25T12:59:28.656Z,96169.27
2023-11-25T13:02:17.265Z,96173.42
2023-11-25T13:04:49.132Z,96176.40
2023-11-25T13:07:33.654Z,96177.84
2023-11-25T13:10:02.526Z,96181.15
2023-11-25T13:12:31.505Z,96183.14
2023-11-25T13:14:59.405Z,96187.60
2023-11-25T13:17:27.474Z,96191.48
2023-11-25T13:19:55.590Z,96190.00
2023-11-25T13:22:25.762Z,96188.58
2023-11-25T13:24:53.740Z,96184.02
2023-11-25T13:27:21.737Z,96190.20
2023-11-25T13:29:49.655Z,96185.95
2023-11-25T13:32:17.915Z,96187.03
2023-11-25T13:34:46.154Z,96186.17
2023-11-25T13:37:14.155Z,96187.41
2023-11-25T13:39:42.361Z,96187.29
2023-11-25T13:42:10.263Z,96187.23
2023-11-25T13:44:38.338Z,96186.55
2023-11-25T13:47:06.339Z,96188.66
2023-11-25T13:49:37.074Z,96195.13
2023-11-25T13:52:05.981Z,96198.17
2023-11-25T13:54:33.894Z,96197.98
2023-11-25T13:57:01.896Z,96197.11
2023-11-25T13:59:29.947Z,96196.47
2023-11-25T14:01:58.043Z,96193.67
2023-11-25T14:04:26.309Z,96186.76
2023-11-25T14:06:54.434Z,96185.20
2023-11-25T14:09:22.332Z,96190.13
2023-11-25T14:11:50.510Z,96197.38
2023-11-25T14:14:18.529Z,96207.05
2023-11-25T14:16:50.451Z,96213.48
2023-11-25T14:19:18.785Z,96212.90
2023-11-25T14:21:47.134Z,96210.70
2023-11-25T14:24:15.052Z,96209.48
2023-11-25T14:26:43.147Z,96207.73
2023-11-25T14:29:11.155Z,96212.41
2023-11-25T14:31:39.230Z,96215.23
2023-11-25T14:34:07.238Z,96216.27
2023-11-25T14:36:35.243Z,96214.98
2023-11-25T14:39:03.354Z,96214.04
2023-11-25T14:41:31.384Z,96214.84
2023-11-25T14:43:59.740Z,96214.71
2023-11-25T14:46:27.809Z,96212.39
2023-11-25T14:48:58.511Z,96212.06
2023-11-25T14:51:26.414Z,96214.25
2023-11-25T14:53:56.733Z,96216.20
2023-11-25T14:56:24.818Z,96217.11
2023-11-25T14:58:52.969Z,96220.41
2023-11-25T15:01:21.099Z,96221.59
2023-11-25T15:03:49.145Z,96223.23
2023-11-25T15:06:17.500Z,96230.04
2023-11-25T15:08:45.415Z,96227.76
2023-11-25T15:11:13.444Z,96231.53
2023-11-25T15:13:41.573Z,96234.13
2023-11-25T15:16:09.485Z,96241.66
2023-11-25T15:18:37.606Z,96239.06
2023-11-25T15:21:05.771Z,96237.95
2023-11-25T15:23:33.712Z,96237.95
2023-11-25T15:26:02.533Z,96238.86
2023-11-25T15:28:30.901Z,96239.05
2023-11-25T15:30:59.019Z,96237.44
2023-11-25T15:33:27.058Z,96235.88
2023-11-25T15:36:32.325Z,96236.02
2023-11-25T15:39:00.310Z,96239.78
2023-11-25T15:41:28.370Z,96239.66
2023-11-25T15:43:56.510Z,96241.48
2023-11-25T15:46:24.644Z,96247.38
2023-11-25T15:48:57.611Z,96249.50
2023-11-25T15:51:25.631Z,96251.18
2023-11-25T15:53:53.572Z,96252.52
2023-11-25T15:56:21.949Z,96250.06
2023-11-25T15:58:50.596Z,96250.98
2023-11-25T16:01:18.515Z,96253.05
2023-11-25T16:03:46.517Z,96253.92
2023-11-25T16:06:14.537Z,96254.73
2023-11-25T16:08:42.767Z,96252.02
2023-11-25T16:11:11.175Z,96248.44
2023-11-25T16:13:39.272Z,96251.01
2023-11-25T16:16:07.558Z,96254.75
2023-11-25T16:18:36.010Z,96251.09
2023-11-25T16:21:04.270Z,96254.39
2023-11-25T16:23:33.647Z,96253.79
2023-11-25T16:26:03.088Z,96248.81
2023-11-25T16:28:40.094Z,96249.73
2023-11-25T16:31:11.201Z,96246.29
2023-11-25T16:33:39.567Z,96241.95
2023-11-25T16:36:07.874Z,96241.86
2023-11-25T16:38:37.365Z,96247.08
2023-11-25T16:41:05.586Z,96255.61
2023-11-25T16:43:36.159Z,96260.74
2023-11-25T16:46:05.564Z,96263.52
2023-11-25T16:48:43.685Z,96268.30
2023-11-25T16:51:19.650Z,96274.27
2023-11-25T16:53:48.022Z,96280.81
2023-11-25T16:56:18.345Z,96282.91
2023-11-25T16:58:49.112Z,96283.83
2023-11-25T17:01:17.239Z,96290.73
2023-11-25T17:03:45.326Z,96294.37
2023-11-25T17:06:16.485Z,96287.66
2023-11-25T17:08:44.581Z,96287.74
2023-11-25T17:11:12.736Z,96282.44
2023-11-25T17:13:40.802Z,96282.09
2023-11-25T17:16:09.182Z,96278.68
2023-11-25T17:18:37.509Z,96279.67
2023-11-25T17:21:05.959Z,96281.52
2023-11-25T17:23:34.004Z,96284.91
2023-11-25T17:26:01.960Z,96284.38
2023-11-25T17:28:30.015Z,96288.02
2023-11-25T17:31:06.948Z,96289.73
2023-11-25T17:33:34.883Z,96286.93
2023-11-25T17:36:02.915Z,96287.41
2023-11-25T17:38:30.970Z,96287.33
2023-11-25T17:40:59.030Z,96291.73
2023-11-25T17:43:27.223Z,96294.81
2023-11-25T17:45:55.420Z,96297.64
2023-11-25T17:48:23.457Z,96300.11
2023-11-25T17:50:51.430Z,96296.03
2023-11-25T17:53:19.516Z,96298.20
2023-11-25T17:55:48.966Z,96301.73
2023-11-25T17:58:17.063Z,96299.61
2023-11-25T18:00:45.282Z,96299.17
2023-11-25T18:03:13.694Z,96301.80
2023-11-25T18:05:43.230Z,96300.41
2023-11-25T18:08:26.964Z,96300.89
2023-11-25T18:10:55.614Z,96296.63
2023-11-25T18:13:28.995Z,96297.00
2023-11-25T18:15:58.527Z,96294.30
2023-11-25T18:18:27.439Z,96289.90
2023-11-25T18:20:55.688Z,96286.89
2023-11-25T18:23:30.049Z,96285.03
2023-11-25T18:26:01.587Z,96284.14
2023-11-25T18:28:30.730Z,96286.17
2023-11-25T18:30:58.760Z,96287.89
2023-11-25T18:33:27.213Z,96291.63
2023-11-25T18:35:55.255Z,96293.84
2023-11-25T18:38:24.665Z,96291.27
2023-11-25T18:40:52.865Z,96292.95
2023-11-25T18:43:21.020Z,96290.11
2023-11-25T18:45:49.059Z,96292.32
2023-11-25T18:48:17.255Z,96293.81
2023-11-25T18:51:05.142Z,96292.73
2023-11-25T18:53:34.593Z,96297.13
2023-11-25T18:56:03.207Z,96298.05
2023-11-25T18:58:31.641Z,96299.90
2023-11-25T19:01:00.417Z,96298.33
2023-11-25T19:03:30.205Z,96297.60
2023-11-25T19:05:59.568Z,96299.62
2023-11-25T19:08:28.084Z,96300.47
2023-11-25T19:10:56.171Z,96298.74
2023-11-25T19:13:25.201Z,96299.60
2023-11-25T19:15:53.478Z,96299.44
2023-11-25T19:18:22.233Z,96300.80
2023-11-25T19:20:50.669Z,96297.27
2023-11-25T19:23:18.790Z,96297.48
2023-11-25T19:25:46.827Z,96303.47
2023-11-25T19:28:15.517Z,96303.16
2023-11-25T19:30:43.536Z,96305.75
2023-11-25T19:33:11.756Z,96309.73
2023-11-25T19:35:39.925Z,96309.45
2023-11-25T19:38:09.159Z,96314.20
2023-11-25T19:40:37.373Z,96312.85
2023-11-25T19:43:08.902Z,96309.44
2023-11-25T19:45:38.246Z,96307.73
2023-11-25T19:48:06.520Z,96309.29
2023-11-25T19:50:34.631Z,96313.34
2023-11-25T19:53:03.341Z,96313.52
2023-11-25T19:55:31.564Z,96319.29
2023-11-25T19:58:00.437Z,96322.64
2023-11-25T20:00:29.307Z,96322.77
2023-11-25T20:02:57.634Z,96322.57
2023-11-25T20:05:25.978Z,96328.61
2023-11-25T20:07:54.352Z,96328.25
2023-11-25T20:10:22.712Z,96328.60
2023-11-25T20:12:50.802Z,96329.77
2023-11-25T20:15:19.492Z,96328.14
2023-11-25T20:17:47.802Z,96328.94
2023-11-25T20:20:16.375Z,96328.76
2023-11-25T20:22:47.589Z,96329.25
2023-11-25T20:25:15.922Z,96328.27
2023-11-25T20:27:44.840Z,96328.40
2023-11-25T20:30:14.844Z,96330.08
2023-11-25T20:32:44.973Z,96330.79
2023-11-25T20:35:18.625Z,96327.36
2023-11-25T20:37:47.318Z,96328.34
2023-11-25T20:40:15.746Z,96332.23
2023-11-25T20:42:43.945Z,96333.26
2023-11-25T20:45:13.465Z,96331.55
2023-11-25T20:47:41.786Z,96331.36
2023-11-25T20:50:11.624Z,96330.84
2023-11-25T20:52:39.637Z,96331.47
2023-11-25T20:55:09.368Z,96328.41
2023-11-25T20:57:37.569Z,96323.64
2023-11-25T21:00:07.743Z,96325.14
2023-11-25T21:02:37.383Z,96324.96
2023-11-25T21:05:06.070Z,96321.39
2023-11-25T21:07:34.747Z,96318.15
2023-11-25T21:10:02.903Z,96313.39
2023-11-25T21:12:31.185Z,96311.02
2023-11-25T21:14:59.248Z,96313.10
2023-11-25T21:17:27.315Z,96316.46
2023-11-25T21:19:55.295Z,96315.83
2023-11-25T21:22:23.547Z,96311.41
2023-11-25T21:24:56.984Z,96312.77
2023-11-25T21:27:25.310Z,96313.23
2023-11-25T21:29:53.218Z,96314.52
2023-11-25T21:32:21.245Z,96312.81
2023-11-25T21:34:49.419Z,96314.14
2023-11-25T21:37:17.524Z,96319.39
2023-11-25T21:39:45.542Z,96318.23
2023-11-25T21:42:13.762Z,96317.20
2023-11-25T21:44:43.432Z,96319.42
2023-11-25T21:50:15.690Z,96318.70
2023-11-25T21:52:48.012Z,96317.48
2023-11-25T21:55:17.477Z,96321.50
2023-11-25T21:57:49.624Z,96317.42
2023-11-25T22:00:25.516Z,96315.70
2023-11-25T22:02:53.693Z,96312.11
2023-11-25T22:05:29.125Z,96316.63
2023-11-25T22:07:57.799Z,96317.44
2023-11-25T22:10:29.726Z,96319.12
2023-11-25T22:12:58.402Z,96319.77
2023-11-25T22:15:26.716Z,96318.73
2023-11-25T22:17:55.965Z,96322.66
2023-11-25T22:20:24.472Z,96325.40
2023-11-25T22:22:52.584Z,96326.40
2023-11-25T22:25:20.627Z,96324.18
2023-11-25T22:27:48.734Z,96336.08
2023-11-25T22:30:16.823Z,96330.63
2023-11-25T22:32:44.889Z,96332.45
2023-11-25T22:35:13.138Z,96336.16
2023-11-25T22:37:41.113Z,96336.82
2023-11-25T22:40:10.888Z,96330.02
2023-11-25T22:42:38.811Z,96326.30
2023-11-25T22:45:07.203Z,96327.87
2023-11-25T22:47:36.726Z,96326.48
2023-11-25T22:50:06.398Z,96326.98
2023-11-25T22:52:34.312Z,96326.14
2023-11-25T22:55:02.859Z,96324.14
2023-11-25T22:57:30.834Z,96323.81
2023-11-25T22:59:58.824Z,96325.51
2023-11-25T23:02:29.774Z,96325.52
2023-11-25T23:04:58.129Z,96325.85
2023-11-25T23:07:26.295Z,96325.98
2023-11-25T23:09:54.206Z,96321.71
2023-11-25T23:12:26.406Z,96325.77
2023-11-25T23:14:54.400Z,96322.73
2023-11-25T23:17:22.333Z,96322.53
2023-11-25T23:19:50.368Z,96324.19
2023-11-25T23:22:18.312Z,96327.55
2023-11-25T23:24:46.230Z,96329.09
2023-11-25T23:27:14.253Z,96330.61
2023-11-25T23:29:42.370Z,96329.90
2023-11-25T23:32:10.450Z,96331.41
2023-11-25T23:34:38.457Z,96326.52
2023-11-25T23:37:06.529Z,96326.52
2023-11-25T23:39:34.472Z,96329.73
2023-11-25T23:42:02.567Z,96332.64
2023-11-25T23:44:30.562Z,96332.98
2023-11-25T23:46:58.549Z,96329.98
2023-11-25T23:49:26.514Z,96325.20
2023-11-25T23:51:54.431Z,96320.35
2023-11-25T23:54:22.417Z,96323.59
2023-11-25T23:56:50.269Z,96324.78
2023-11-25T23:59:20.785Z,96321.09
